EDVK Airport Information

Runway Information
Runway 04 Length 4921 ft width 98 ft
Elevation 898 ft Threshold 0 ft Heading 41
Runway 22 Length 4921 ft Width 98 ft
Elevation 872 ft Threshold 0 ft Heading 221
Runway 04L Length 2297 ft width 98 ft
Elevation 0 ft Threshold 0 ft Heading 41
Runway 22R Length 2297 ft Width 98 ft
Elevation 0 ft Threshold 0 ft Heading 221
Airport Frequencies
Type INFO Name BREMEN INF Frequency 119.825 MHZ
Type RDR Name BREMEN RAD Frequency 123.925 MHZ
Type TWR Name TWR Frequency 118.1 MHZ
Airport Navaids
Type NDB Name Kassel Frequency 349 KHZ
Airport Weather Information & NOTAM
ADDS - METARS form results

(0150 UTC 19 September 2021)
Data provider http://aviationweather.gov/metar/data/
 
Forecast for: EDVK (KASSEL/CALDEN , DE)
Text: TAF EDVK 181700Z 1818/1903 04005KT 9999 SCT020 BKN035
Forecast period: 1800 UTC 18 September 2021 to 0300 UTC 19 September 2021
Forecast type: FROM: standard forecast or significant change
Winds: from the NE (40 degrees) at 6 MPH (5 knots; 2.6 m/s)
Visibility: 6 or more miles (10+ km)
Ceiling: 3500 feet AGL
Clouds: scattered clouds at 2000 feet AGL
broken clouds at 3500 feet AGL
Weather: no significant weather forecast for this period